createdAt,value
2022-08-08T00:00:52.316Z,77.01
2022-08-08T00:02:33.062Z,77.35
2022-08-08T00:04:27.871Z,77.01
2022-08-08T00:06:13.820Z,76.80
2022-08-08T00:08:07.372Z,76.94
2022-08-08T00:09:55.028Z,77.14
2022-08-08T00:12:05.786Z,77.72
2022-08-08T00:14:16.975Z,78.45
2022-08-08T00:15:56.602Z,78.87
2022-08-08T00:17:35.310Z,78.65
2022-08-08T00:19:30.807Z,79.19
2022-08-08T00:21:07.842Z,79.50
2022-08-08T00:22:51.148Z,80.14
2022-08-08T00:24:56.880Z,80.81
2022-08-08T00:26:42.454Z,80.50
2022-08-08T00:28:35.386Z,80.60
2022-08-08T00:30:15.844Z,80.97
2022-08-08T00:32:21.542Z,81.29
2022-08-08T00:34:28.582Z,81.32
2022-08-08T00:36:14.931Z,81.33
2022-08-08T00:38:01.700Z,81.27
2022-08-08T00:41:11.942Z,81.16
2022-08-08T00:42:33.327Z,81.42
2022-08-08T00:44:19.024Z,81.32
2022-08-08T00:46:32.266Z,80.40
2022-08-08T00:48:29.848Z,79.64
2022-08-08T00:50:04.549Z,79.37
2022-08-08T00:51:42.166Z,79.86
2022-08-08T00:53:29.281Z,80.31
2022-08-08T00:55:22.157Z,80.74
2022-08-08T00:57:39.440Z,80.43
2022-08-08T00:59:43.103Z,80.20
2022-08-08T01:01:37.523Z,79.77
2022-08-08T01:04:02.127Z,79.65
2022-08-08T01:06:02.457Z,79.67
2022-08-08T01:08:08.045Z,80.03
2022-08-08T01:09:51.503Z,80.31
2022-08-08T01:11:57.023Z,80.35
2022-08-08T01:13:59.989Z,80.28
2022-08-08T01:15:59.717Z,80.41
2022-08-08T01:17:52.029Z,80.06
2022-08-08T01:19:52.402Z,79.94
2022-08-08T01:22:07.147Z,79.78
2022-08-08T01:24:03.367Z,79.73
2022-08-08T01:25:54.260Z,79.50
2022-08-08T01:27:59.476Z,78.96
2022-08-08T01:29:59.838Z,78.31
2022-08-08T01:32:12.990Z,77.73
2022-08-08T01:34:07.095Z,77.15
2022-08-08T01:35:52.676Z,76.73
2022-08-08T01:38:04.437Z,75.13
2022-08-08T01:40:14.594Z,72.42
2022-08-08T01:42:15.626Z,70.30
2022-08-08T01:43:56.133Z,67.81
2022-08-08T01:45:37.587Z,66.09
2022-08-08T01:48:13.818Z,64.74
2022-08-08T01:49:37.122Z,63.91
2022-08-08T01:52:44.147Z,62.46
2022-08-08T01:55:15.155Z,61.58
2022-08-08T01:56:26.920Z,59.79
2022-08-08T01:58:12.000Z,58.84
2022-08-08T02:00:02.136Z,57.23
2022-08-08T02:02:07.411Z,56.35
2022-08-08T02:04:05.490Z,54.62
2022-08-08T02:06:00.733Z,53.93
2022-08-08T02:08:02.509Z,53.91
2022-08-08T02:10:03.920Z,53.69
2022-08-08T02:11:59.818Z,52.99
2022-08-08T02:14:13.014Z,51.94
2022-08-08T02:15:48.871Z,50.77
2022-08-08T02:17:36.451Z,50.86
2022-08-08T02:19:57.208Z,50.63
2022-08-08T02:21:49.527Z,49.80
2022-08-08T02:23:35.166Z,48.76
2022-08-08T02:25:15.145Z,47.29
2022-08-08T02:26:58.066Z,46.93
2022-08-08T02:28:57.251Z,47.66
2022-08-08T02:30:49.751Z,47.43
2022-08-08T02:32:32.987Z,46.46
2022-08-08T02:34:27.642Z,45.91
2022-08-08T02:36:24.873Z,45.24
2022-08-08T02:38:25.014Z,43.91
2022-08-08T02:40:10.260Z,43.33
2022-08-08T02:42:04.152Z,42.97
2022-08-08T02:44:42.989Z,42.74
2022-08-08T02:46:08.103Z,43.44
2022-08-08T02:48:07.926Z,42.86
2022-08-08T02:49:51.829Z,41.94
2022-08-08T02:51:56.562Z,41.84
2022-08-08T02:53:39.774Z,41.93
2022-08-08T02:55:19.707Z,42.48
2022-08-08T02:56:58.754Z,43.15
2022-08-08T02:58:51.082Z,43.13
2022-08-08T03:00:47.079Z,43.74
2022-08-08T03:02:30.611Z,43.88
2022-08-08T03:05:02.469Z,42.55
2022-08-08T03:06:34.309Z,42.03
2022-08-08T03:08:28.023Z,41.32
2022-08-08T03:10:32.438Z,40.87
2022-08-08T03:12:08.387Z,40.80
2022-08-08T03:16:04.035Z,43.50
2022-08-08T03:16:19.754Z,44.15
2022-08-08T03:18:15.595Z,44.11
2022-08-08T03:20:10.495Z,43.23
2022-08-08T03:21:58.789Z,43.59
2022-08-08T03:23:39.677Z,42.55
2022-08-08T03:25:35.691Z,41.87
2022-08-08T03:27:30.144Z,41.26
2022-08-08T03:29:16.695Z,40.64
2022-08-08T03:31:22.057Z,39.60
2022-08-08T03:33:08.042Z,38.21
2022-08-08T03:35:07.181Z,37.47
2022-08-08T03:36:44.101Z,38.54
2022-08-08T03:38:58.040Z,37.79
2022-08-08T03:40:29.378Z,38.24
2022-08-08T03:42:27.795Z,37.95
2022-08-08T03:44:01.497Z,37.36
2022-08-08T03:46:07.206Z,36.92
2022-08-08T03:47:45.984Z,36.23
2022-08-08T03:49:57.256Z,35.04
2022-08-08T03:51:15.741Z,35.00
2022-08-08T03:52:53.524Z,34.59
2022-08-08T03:54:41.564Z,34.45
2022-08-08T03:56:32.190Z,34.35
2022-08-08T03:58:34.447Z,34.95
2022-08-08T04:00:18.891Z,35.00
2022-08-08T04:02:12.344Z,34.93
2022-08-08T04:04:02.016Z,34.74
2022-08-08T04:05:49.639Z,35.38
2022-08-08T04:07:25.262Z,36.14
2022-08-08T04:09:06.768Z,37.07
2022-08-08T04:10:47.006Z,38.02
2022-08-08T04:12:33.629Z,37.47
2022-08-08T04:14:33.822Z,36.29
2022-08-08T04:16:04.025Z,35.16
2022-08-08T04:17:46.010Z,34.57
2022-08-08T04:19:30.873Z,34.17
2022-08-08T04:21:10.297Z,33.68
2022-08-08T04:22:45.752Z,32.65
2022-08-08T04:24:29.225Z,32.05
2022-08-08T04:26:09.134Z,32.00
2022-08-08T04:28:34.253Z,31.86
2022-08-08T04:29:37.767Z,32.83
2022-08-08T04:31:30.739Z,32.23
2022-08-08T04:33:07.937Z,31.52
2022-08-08T04:34:58.331Z,31.45
2022-08-08T04:36:37.836Z,31.52
2022-08-08T04:38:11.099Z,31.48
2022-08-08T04:40:06.726Z,31.93
2022-08-08T04:41:43.852Z,32.60
2022-08-08T04:43:19.353Z,31.36
2022-08-08T04:45:01.571Z,31.30
2022-08-08T04:46:36.163Z,31.68
2022-08-08T04:48:22.344Z,30.98
2022-08-08T04:50:00.471Z,31.32
2022-08-08T04:51:48.543Z,31.58
2022-08-08T04:54:36.403Z,30.92
2022-08-08T04:55:25.965Z,31.07
2022-08-08T04:57:12.369Z,31.33
2022-08-08T04:58:46.258Z,31.35
2022-08-08T05:00:26.039Z,30.77
2022-08-08T05:02:01.102Z,30.48
2022-08-08T05:04:09.568Z,31.22
2022-08-08T05:05:45.336Z,30.90
2022-08-08T05:07:20.765Z,30.17
2022-08-08T05:08:54.803Z,29.84
2022-08-08T05:10:31.038Z,29.50
2022-08-08T05:12:09.160Z,29.99
2022-08-08T05:13:58.024Z,30.25
2022-08-08T05:16:53.441Z,29.16
2022-08-08T05:17:53.755Z,29.26
2022-08-08T05:20:10.912Z,28.92
2022-08-08T05:21:19.659Z,29.33
2022-08-08T05:22:54.936Z,29.36
2022-08-08T05:24:35.062Z,29.13
2022-08-08T05:26:14.244Z,29.50
2022-08-08T05:27:49.215Z,28.72
2022-08-08T05:29:23.010Z,28.37
2022-08-08T05:30:57.054Z,28.64
2022-08-08T05:32:44.320Z,27.99
2022-08-08T05:34:34.811Z,27.97
2022-08-08T05:36:12.342Z,28.21
2022-08-08T05:38:30.222Z,28.59
2022-08-08T05:40:06.366Z,29.17
2022-08-08T05:41:55.660Z,29.95
2022-08-08T05:43:39.260Z,30.26
2022-08-08T05:45:25.700Z,30.65
2022-08-08T05:47:08.843Z,30.45
2022-08-08T05:48:52.070Z,31.64
2022-08-08T05:50:33.509Z,31.87
2022-08-08T05:52:09.632Z,32.00
2022-08-08T05:54:24.452Z,30.36
2022-08-08T05:56:07.554Z,30.20
2022-08-08T05:58:04.145Z,29.40
2022-08-08T06:00:01.114Z,29.52
2022-08-08T06:01:50.590Z,29.48
2022-08-08T06:03:29.758Z,29.53
2022-08-08T06:05:24.351Z,28.87
2022-08-08T06:07:09.036Z,29.10
2022-08-08T06:08:54.793Z,28.71
2022-08-08T06:10:33.394Z,29.28
2022-08-08T06:12:09.148Z,30.28
2022-08-08T06:13:49.523Z,30.38
2022-08-08T06:15:50.092Z,29.58
2022-08-08T06:17:50.224Z,29.54
2022-08-08T06:19:20.129Z,29.48
2022-08-08T06:21:03.822Z,29.31
2022-08-08T06:22:46.626Z,29.05
2022-08-08T06:24:30.600Z,29.50
2022-08-08T06:26:39.031Z,29.30
2022-08-08T06:28:09.044Z,29.27
2022-08-08T06:30:00.900Z,29.25
2022-08-08T06:32:09.376Z,30.41
2022-08-08T06:34:26.127Z,30.89
2022-08-08T06:36:09.084Z,30.71
2022-08-08T06:37:46.733Z,31.46
2022-08-08T06:39:34.034Z,31.64
2022-08-08T06:41:15.335Z,30.73
2022-08-08T06:42:55.789Z,31.21
2022-08-08T06:44:42.453Z,31.31
2022-08-08T06:46:16.940Z,31.03
2022-08-08T06:48:01.426Z,31.22
2022-08-08T06:49:56.148Z,32.00
2022-08-08T06:51:52.528Z,32.48
2022-08-08T06:53:39.486Z,32.30
2022-08-08T06:55:16.632Z,32.45
2022-08-08T06:56:52.703Z,32.79
2022-08-08T06:58:30.686Z,32.77
2022-08-08T07:00:12.430Z,33.28
2022-08-08T07:02:26.874Z,33.22
2022-08-08T07:04:38.542Z,32.60
2022-08-08T07:06:11.358Z,33.35
2022-08-08T07:07:45.636Z,33.46
2022-08-08T07:09:22.161Z,33.11
2022-08-08T07:11:21.925Z,33.70
2022-08-08T07:13:07.396Z,34.22
2022-08-08T07:14:53.064Z,34.59
2022-08-08T07:16:51.180Z,34.06
2022-08-08T07:18:49.349Z,33.78
2022-08-08T07:20:33.950Z,34.41
2022-08-08T07:22:18.926Z,33.61
2022-08-08T07:24:12.644Z,33.85
2022-08-08T07:26:05.564Z,34.32
2022-08-08T07:27:47.336Z,33.73
2022-08-08T07:30:02.137Z,34.03
2022-08-08T07:31:48.281Z,33.79
2022-08-08T07:33:26.471Z,34.11
2022-08-08T07:35:06.479Z,33.44
2022-08-08T07:37:00.431Z,33.59
2022-08-08T07:38:38.078Z,33.05
2022-08-08T07:40:21.062Z,32.80
2022-08-08T07:42:05.368Z,32.86
2022-08-08T07:43:51.421Z,33.18
2022-08-08T07:45:34.899Z,33.45
2022-08-08T07:47:38.455Z,33.22
2022-08-08T07:49:16.658Z,32.99
2022-08-08T07:50:53.000Z,32.92
2022-08-08T07:52:30.692Z,33.03
2022-08-08T07:54:08.501Z,33.75
2022-08-08T07:55:47.855Z,33.58
2022-08-08T07:57:29.385Z,33.70
2022-08-08T07:59:15.286Z,33.96
2022-08-08T08:00:54.615Z,34.05
2022-08-08T08:02:38.733Z,33.38
2022-08-08T08:04:23.478Z,33.14
2022-08-08T08:05:58.963Z,33.92
2022-08-08T08:07:41.593Z,33.96
2022-08-08T08:09:26.409Z,33.04
2022-08-08T08:11:04.069Z,32.66
2022-08-08T08:12:43.174Z,33.82
2022-08-08T08:14:19.930Z,32.27
2022-08-08T08:16:00.969Z,32.49
2022-08-08T08:17:47.520Z,32.95
2022-08-08T08:19:45.064Z,32.98
2022-08-08T08:21:44.378Z,32.72
2022-08-08T08:23:21.533Z,32.92
2022-08-08T08:25:07.632Z,33.37
2022-08-08T08:26:52.477Z,33.14
2022-08-08T08:28:28.045Z,33.16
2022-08-08T08:30:04.448Z,33.66
2022-08-08T08:31:42.320Z,33.88
2022-08-08T08:33:17.165Z,33.53
2022-08-08T08:34:53.670Z,33.34
2022-08-08T08:36:29.739Z,33.49
2022-08-08T08:38:17.910Z,33.75
2022-08-08T08:40:02.809Z,32.67
2022-08-08T08:41:48.604Z,33.72
2022-08-08T08:43:26.715Z,32.97
2022-08-08T08:45:21.299Z,31.97
2022-08-08T08:46:59.859Z,32.02
2022-08-08T08:48:34.659Z,31.54
2022-08-08T08:50:08.165Z,32.20
2022-08-08T08:52:03.395Z,32.12
2022-08-08T08:53:56.050Z,31.91
2022-08-08T08:55:39.425Z,32.61
2022-08-08T08:57:17.498Z,32.39
2022-08-08T08:58:56.648Z,31.62
2022-08-08T09:01:05.048Z,32.04
2022-08-08T09:02:35.075Z,31.49
2022-08-08T09:04:31.233Z,31.70
2022-08-08T09:06:26.384Z,31.46
2022-08-08T09:08:18.137Z,32.14
2022-08-08T09:09:55.189Z,32.70
2022-08-08T09:11:47.458Z,32.74
2022-08-08T09:13:31.275Z,32.16
2022-08-08T09:15:11.307Z,32.42
2022-08-08T09:16:49.307Z,31.67
2022-08-08T09:18:24.400Z,31.88
2022-08-08T09:22:02.441Z,31.48
2022-08-08T09:22:06.118Z,31.50
2022-08-08T09:23:54.832Z,30.63
2022-08-08T09:25:54.616Z,30.47
2022-08-08T09:27:57.575Z,30.75
2022-08-08T09:29:31.943Z,31.67
2022-08-08T09:31:24.131Z,32.09
2022-08-08T09:33:12.148Z,31.95
2022-08-08T09:34:58.590Z,31.37
2022-08-08T09:36:39.282Z,31.60
2022-08-08T09:38:19.875Z,31.52
2022-08-08T09:39:52.986Z,30.66
2022-08-08T09:41:54.821Z,30.40
2022-08-08T09:44:05.505Z,30.31
2022-08-08T09:46:06.844Z,30.66
2022-08-08T09:48:05.016Z,30.46
2022-08-08T09:49:49.909Z,30.40
2022-08-08T09:52:01.491Z,30.55
2022-08-08T09:54:01.212Z,30.88
2022-08-08T09:55:51.448Z,31.37
2022-08-08T09:57:46.061Z,31.39
2022-08-08T10:00:02.508Z,31.41
2022-08-08T10:02:02.243Z,31.65
2022-08-08T10:03:31.489Z,31.49
2022-08-08T10:05:27.679Z,31.22
2022-08-08T10:07:20.423Z,30.60
2022-08-08T10:08:56.423Z,30.13
2022-08-08T10:10:33.685Z,28.80
2022-08-08T10:12:27.984Z,29.04
2022-08-08T10:14:28.097Z,29.03
2022-08-08T10:16:06.663Z,29.12
2022-08-08T10:18:06.051Z,29.09
2022-08-08T10:19:57.547Z,29.13
2022-08-08T10:21:42.348Z,29.09
2022-08-08T10:23:41.831Z,29.51
2022-08-08T10:25:21.519Z,29.46
2022-08-08T10:27:02.302Z,29.71
2022-08-08T10:28:37.792Z,29.73
2022-08-08T10:30:16.583Z,29.63
2022-08-08T10:32:30.114Z,30.03
2022-08-08T10:34:20.314Z,30.12
2022-08-08T10:36:20.637Z,29.68
2022-08-08T10:38:00.743Z,28.44
2022-08-08T10:41:59.086Z,29.19
2022-08-08T10:43:43.101Z,29.61
2022-08-08T10:45:19.865Z,29.28
2022-08-08T10:47:00.798Z,29.41
2022-08-08T10:48:56.777Z,29.50
2022-08-08T10:50:36.239Z,29.32
2022-08-08T10:52:30.806Z,29.16
2022-08-08T10:54:04.612Z,29.30
2022-08-08T10:55:46.605Z,29.14
2022-08-08T10:57:27.645Z,28.94
2022-08-08T10:59:15.896Z,29.41
2022-08-08T11:01:02.278Z,29.42
2022-08-08T11:02:41.993Z,29.53
2022-08-08T11:04:29.944Z,29.58
2022-08-08T11:06:16.374Z,29.52
2022-08-08T11:08:38.003Z,29.08
2022-08-08T11:09:54.353Z,28.86
2022-08-08T11:12:04.755Z,28.89
2022-08-08T11:13:52.058Z,28.97
2022-08-08T11:16:07.986Z,29.01
2022-08-08T11:18:00.271Z,28.68
2022-08-08T11:19:38.406Z,28.29
2022-08-08T11:21:19.749Z,28.77
2022-08-08T11:22:59.920Z,28.71
2022-08-08T11:24:36.738Z,28.99
2022-08-08T11:26:27.967Z,28.83
2022-08-08T11:28:05.432Z,29.01
2022-08-08T11:30:19.445Z,29.30
2022-08-08T11:31:49.361Z,29.59
2022-08-08T11:33:53.135Z,29.70
2022-08-08T11:35:29.348Z,30.03
2022-08-08T11:37:17.956Z,30.17
2022-08-08T11:39:16.421Z,29.63
2022-08-08T11:40:58.944Z,29.35
2022-08-08T11:42:33.298Z,29.73
2022-08-08T11:44:19.170Z,29.40
2022-08-08T11:46:17.658Z,29.64
2022-08-08T11:48:02.665Z,29.21
2022-08-08T11:49:42.117Z,29.70
2022-08-08T11:51:37.394Z,29.63
2022-08-08T11:53:16.731Z,29.79
2022-08-08T11:54:55.999Z,29.97
2022-08-08T11:56:34.520Z,29.67
2022-08-08T11:58:17.875Z,29.79
2022-08-08T12:00:05.660Z,29.82
2022-08-08T12:02:05.078Z,29.77
2022-08-08T12:03:59.773Z,29.43
2022-08-08T12:05:43.859Z,29.62
2022-08-08T12:07:19.155Z,29.45
2022-08-08T12:09:05.445Z,29.61
2022-08-08T12:10:50.295Z,29.93
2022-08-08T12:12:28.697Z,30.07
2022-08-08T12:14:07.807Z,29.81
2022-08-08T12:15:50.624Z,29.85
2022-08-08T12:17:38.009Z,29.88
2022-08-08T12:19:37.458Z,30.08
2022-08-08T12:21:59.697Z,29.64
2022-08-08T12:23:51.646Z,29.80
2022-08-08T12:25:44.714Z,29.73
2022-08-08T12:27:48.032Z,29.52
2022-08-08T12:29:40.439Z,29.47
2022-08-08T12:31:17.216Z,29.51
2022-08-08T12:32:58.504Z,28.87
2022-08-08T12:34:36.747Z,29.07
2022-08-08T12:36:14.792Z,28.90
2022-08-08T12:38:07.215Z,28.56
2022-08-08T12:40:00.809Z,29.17
2022-08-08T12:41:57.089Z,29.12
2022-08-08T12:43:46.302Z,28.26
2022-08-08T12:45:59.936Z,28.94
2022-08-08T12:47:58.573Z,29.26
2022-08-08T12:49:43.392Z,29.42
2022-08-08T12:51:22.186Z,29.23
2022-08-08T12:52:59.526Z,29.29
2022-08-08T12:54:43.537Z,29.33
2022-08-08T12:56:24.497Z,29.23
2022-08-08T12:58:09.110Z,29.20
2022-08-08T13:00:05.906Z,29.13
2022-08-08T13:01:52.784Z,29.38
2022-08-08T13:03:27.635Z,29.93
2022-08-08T13:05:25.746Z,30.42
2022-08-08T13:07:12.031Z,30.08
2022-08-08T13:08:53.638Z,30.11
2022-08-08T13:10:36.462Z,30.50
2022-08-08T13:12:28.795Z,30.63
2022-08-08T13:14:20.989Z,30.67
2022-08-08T13:15:56.648Z,30.70
2022-08-08T13:18:09.228Z,30.29
2022-08-08T13:19:25.330Z,30.58
2022-08-08T13:21:16.374Z,30.89
2022-08-08T13:22:55.980Z,30.75
2022-08-08T13:24:48.093Z,30.45
2022-08-08T13:26:22.692Z,30.66
2022-08-08T13:28:00.922Z,30.48
2022-08-08T13:29:38.002Z,30.72
2022-08-08T13:31:16.691Z,30.83
2022-08-08T13:32:55.166Z,30.93
2022-08-08T13:34:29.312Z,30.86
2022-08-08T13:36:09.262Z,31.16
2022-08-08T13:38:05.176Z,31.43
2022-08-08T13:39:37.184Z,31.58
2022-08-08T13:41:16.709Z,31.25
2022-08-08T13:42:50.582Z,31.19
2022-08-08T13:44:27.016Z,31.52
2022-08-08T13:46:09.130Z,31.52
2022-08-08T13:48:04.534Z,31.50
2022-08-08T13:50:37.624Z,32.18
2022-08-08T13:51:37.919Z,31.97
2022-08-08T13:53:26.218Z,32.16
2022-08-08T13:55:01.059Z,31.86
2022-08-08T13:56:59.818Z,31.67
2022-08-08T13:58:31.797Z,31.77
2022-08-08T14:00:11.069Z,32.04
2022-08-08T14:01:57.987Z,31.65
2022-08-08T14:03:53.366Z,32.26
2022-08-08T14:05:34.429Z,32.60
2022-08-08T14:07:09.402Z,32.54
2022-08-08T14:08:46.382Z,32.42
2022-08-08T14:10:33.570Z,32.50
2022-08-08T14:12:11.283Z,32.69
2022-08-08T14:14:00.568Z,32.40
2022-08-08T14:15:39.892Z,32.91
2022-08-08T14:17:22.761Z,32.95
2022-08-08T14:19:17.672Z,32.66
2022-08-08T14:21:08.130Z,32.74
2022-08-08T14:22:50.925Z,32.62
2022-08-08T14:24:33.999Z,33.04
2022-08-08T14:26:10.788Z,32.96
2022-08-08T14:27:59.968Z,33.22
2022-08-08T14:29:39.514Z,33.53
2022-08-08T14:31:23.927Z,33.29
2022-08-08T14:33:15.144Z,33.58
2022-08-08T14:35:06.735Z,33.85
2022-08-08T14:36:53.356Z,33.78
2022-08-08T14:38:33.370Z,33.95
2022-08-08T14:40:25.140Z,33.57
2022-08-08T14:42:07.645Z,33.72
2022-08-08T14:44:10.678Z,33.96
2022-08-08T14:46:01.743Z,34.21
2022-08-08T14:47:47.289Z,34.17
2022-08-08T14:49:33.718Z,34.38
2022-08-08T14:51:31.044Z,34.46
2022-08-08T14:53:24.331Z,34.22
2022-08-08T14:54:59.449Z,34.60
2022-08-08T14:56:32.868Z,34.70
2022-08-08T14:58:11.853Z,34.85
2022-08-08T14:59:51.021Z,35.23
2022-08-08T15:01:37.582Z,35.26
2022-08-08T15:03:17.193Z,35.26
2022-08-08T15:04:51.948Z,35.49
2022-08-08T15:06:25.180Z,35.93
2022-08-08T15:08:01.882Z,35.88
2022-08-08T15:09:35.727Z,36.11
2022-08-08T15:11:19.061Z,36.33
2022-08-08T15:12:54.118Z,36.44
2022-08-08T15:14:28.207Z,36.70
2022-08-08T15:16:03.690Z,37.16
2022-08-08T15:17:37.959Z,37.07
2022-08-08T15:19:14.995Z,37.47
2022-08-08T15:20:54.297Z,37.30
2022-08-08T15:22:28.635Z,37.71
2022-08-08T15:24:03.324Z,37.84
2022-08-08T15:25:37.440Z,38.11
2022-08-08T15:28:05.008Z,38.29
2022-08-08T15:29:07.028Z,38.42
2022-08-08T15:30:41.301Z,38.71
2022-08-08T15:32:30.548Z,38.55
2022-08-08T15:34:05.046Z,38.79
2022-08-08T15:35:40.345Z,38.83
2022-08-08T15:37:13.845Z,39.05
2022-08-08T15:38:50.886Z,39.16
2022-08-08T15:40:28.404Z,39.21
2022-08-08T15:42:04.442Z,39.03
2022-08-08T15:43:39.505Z,39.45
2022-08-08T15:45:14.529Z,39.58
2022-08-08T15:46:51.164Z,39.82
2022-08-08T15:48:25.041Z,39.74
2022-08-08T15:50:00.174Z,39.86
2022-08-08T15:51:34.381Z,39.78
2022-08-08T15:53:07.815Z,39.99
2022-08-08T15:54:46.161Z,40.07
2022-08-08T15:56:24.423Z,40.02
2022-08-08T15:57:58.412Z,40.23
2022-08-08T16:00:05.282Z,40.43
2022-08-08T16:01:40.486Z,40.54
2022-08-08T16:03:22.645Z,40.79
2022-08-08T16:04:58.452Z,41.08
2022-08-08T16:06:32.474Z,41.04
2022-08-08T16:08:10.753Z,41.36
2022-08-08T16:13:02.009Z,42.26
2022-08-08T16:13:02.012Z,41.92
2022-08-08T16:13:43.555Z,42.79
2022-08-08T16:15:21.935Z,44.15
2022-08-08T16:16:58.255Z,44.12
2022-08-08T16:18:33.285Z,44.25
2022-08-08T16:20:10.018Z,44.77
2022-08-08T16:21:49.143Z,45.32
2022-08-08T16:23:27.279Z,46.09
2022-08-08T16:25:03.784Z,46.52
2022-08-08T16:26:42.356Z,46.33
2022-08-08T16:28:34.214Z,47.19
2022-08-08T16:30:14.207Z,47.31
2022-08-08T16:31:50.678Z,48.02
2022-08-08T16:33:29.578Z,48.70
2022-08-08T16:35:12.158Z,48.46
2022-08-08T16:36:49.335Z,48.88
2022-08-08T16:38:31.828Z,49.15
2022-08-08T16:40:05.987Z,49.12
2022-08-08T16:41:41.304Z,49.61
2022-08-08T16:43:23.905Z,49.79
2022-08-08T16:44:59.804Z,49.92
2022-08-08T16:46:44.048Z,50.40
2022-08-08T16:48:21.876Z,49.87
2022-08-08T16:50:06.897Z,50.43
2022-08-08T16:55:00.525Z,52.04
2022-08-08T16:55:01.634Z,51.05
2022-08-08T16:55:53.285Z,52.55
2022-08-08T16:58:14.387Z,53.01
2022-08-08T16:59:22.297Z,52.84
2022-08-08T17:00:59.025Z,54.22
2022-08-08T17:02:39.714Z,54.06
2022-08-08T17:04:13.518Z,54.08
2022-08-08T17:05:51.367Z,54.36
2022-08-08T17:07:28.224Z,54.39
2022-08-08T17:09:02.390Z,53.82
2022-08-08T17:10:36.357Z,53.83
2022-08-08T17:12:10.275Z,54.23
2022-08-08T17:14:17.933Z,54.04
2022-08-08T17:15:53.403Z,54.77
2022-08-08T17:18:00.779Z,54.87
2022-08-08T17:19:20.516Z,55.35
2022-08-08T17:20:59.003Z,55.12
2022-08-08T17:22:42.033Z,55.67
2022-08-08T17:24:28.091Z,55.75
2022-08-08T17:26:06.184Z,56.01
2022-08-08T17:27:46.285Z,56.14
2022-08-08T17:29:24.819Z,56.07
2022-08-08T17:30:58.875Z,56.65
2022-08-08T17:32:34.234Z,56.36
2022-08-08T17:34:48.863Z,56.24
2022-08-08T17:36:31.081Z,55.95
2022-08-08T17:38:04.941Z,56.31
2022-08-08T17:40:04.533Z,56.92
2022-08-08T17:41:38.636Z,56.74
2022-08-08T17:43:17.449Z,57.06
2022-08-08T17:44:52.922Z,56.98
2022-08-08T17:46:39.634Z,57.72
2022-08-08T17:48:15.052Z,58.04
2022-08-08T17:50:03.470Z,58.72
2022-08-08T17:51:38.291Z,59.30
2022-08-08T17:53:17.274Z,59.18
2022-08-08T17:55:09.286Z,58.27
2022-08-08T17:57:02.172Z,57.89
2022-08-08T17:58:35.808Z,57.81
2022-08-08T18:00:19.292Z,57.12
2022-08-08T18:01:55.020Z,56.67
2022-08-08T18:03:28.366Z,56.51
2022-08-08T18:05:04.847Z,56.48
2022-08-08T18:06:43.039Z,56.94
2022-08-08T18:08:25.169Z,57.16
2022-08-08T18:10:15.008Z,57.20
2022-08-08T18:11:49.077Z,57.30
2022-08-08T18:13:24.577Z,57.25
2022-08-08T18:15:01.291Z,57.81
2022-08-08T18:16:41.294Z,58.46
2022-08-08T18:18:29.474Z,58.60
2022-08-08T18:20:44.358Z,58.51
2022-08-08T18:22:05.268Z,58.47
2022-08-08T18:23:38.807Z,58.89
2022-08-08T18:25:17.010Z,59.23
2022-08-08T18:26:57.043Z,59.12
2022-08-08T18:28:39.063Z,58.96
2022-08-08T18:30:24.255Z,59.33
2022-08-08T18:31:59.475Z,58.97
2022-08-08T18:34:10.838Z,59.04
2022-08-08T18:35:34.222Z,58.85
2022-08-08T18:37:17.806Z,59.03
2022-08-08T18:39:08.968Z,59.21
2022-08-08T18:40:42.685Z,59.44
2022-08-08T18:42:19.383Z,59.95
2022-08-08T18:43:55.552Z,59.90
2022-08-08T18:46:53.487Z,60.34
2022-08-08T18:47:22.346Z,60.43
2022-08-08T18:48:57.594Z,60.01
2022-08-08T18:50:31.528Z,60.13
2022-08-08T18:52:22.299Z,60.36
2022-08-08T18:54:02.610Z,60.46
2022-08-08T18:55:39.132Z,60.59
2022-08-08T18:57:18.229Z,61.15
2022-08-08T18:59:01.174Z,60.85
2022-08-08T19:00:35.955Z,60.52
2022-08-08T19:02:26.771Z,60.39
2022-08-08T19:04:10.302Z,61.25
2022-08-08T19:05:51.662Z,61.21
2022-08-08T19:07:30.018Z,61.19
2022-08-08T19:09:13.215Z,60.98
2022-08-08T19:10:47.023Z,61.03
2022-08-08T19:12:26.510Z,61.42
2022-08-08T19:14:13.822Z,61.74
2022-08-08T19:15:59.254Z,61.88
2022-08-08T19:18:32.522Z,61.69
2022-08-08T19:20:02.089Z,62.24
2022-08-08T19:21:49.209Z,62.65
2022-08-08T19:23:28.893Z,62.67
2022-08-08T19:26:27.062Z,62.68
2022-08-08T19:27:05.969Z,62.48
2022-08-08T19:28:41.387Z,62.50
2022-08-08T19:30:24.367Z,62.57
2022-08-08T19:32:03.321Z,62.48
2022-08-08T19:34:30.156Z,62.58
2022-08-08T19:36:08.048Z,62.49
2022-08-08T19:37:48.596Z,62.70
2022-08-08T19:39:30.806Z,62.78
2022-08-08T19:41:09.813Z,62.59
2022-08-08T19:42:47.336Z,62.74
2022-08-08T19:44:27.002Z,63.50
2022-08-08T19:46:33.765Z,63.90
2022-08-08T19:48:28.805Z,64.76
2022-08-08T19:50:03.471Z,64.78
2022-08-08T19:51:41.611Z,64.28
2022-08-08T19:53:51.998Z,65.00
2022-08-08T19:55:23.864Z,65.06
2022-08-08T19:57:04.200Z,65.69
2022-08-08T19:58:41.855Z,65.22
2022-08-08T20:00:30.260Z,64.95
2022-08-08T20:02:10.609Z,64.53
2022-08-08T20:04:02.376Z,64.33
2022-08-08T20:06:12.913Z,64.03
2022-08-08T20:08:29.685Z,64.01
2022-08-08T20:09:23.407Z,64.48
2022-08-08T20:10:56.703Z,64.59
2022-08-08T20:12:32.934Z,64.54
2022-08-08T20:14:12.604Z,64.62
2022-08-08T20:16:05.091Z,64.71
2022-08-08T20:17:42.729Z,64.66
2022-08-08T20:19:18.891Z,64.71
2022-08-08T20:20:51.947Z,64.51
2022-08-08T20:22:30.748Z,64.60
2022-08-08T20:24:07.730Z,64.26
2022-08-08T20:25:44.742Z,64.26
2022-08-08T20:27:24.915Z,64.32
2022-08-08T20:29:07.081Z,64.56
2022-08-08T20:30:55.635Z,65.13
2022-08-08T20:32:31.964Z,65.48
2022-08-08T20:34:30.046Z,66.42
2022-08-08T20:36:05.244Z,67.43
2022-08-08T20:37:53.342Z,67.71
2022-08-08T20:39:39.689Z,68.09
2022-08-08T20:41:22.672Z,67.87
2022-08-08T20:43:00.623Z,67.95
2022-08-08T20:44:34.464Z,68.86
2022-08-08T20:46:08.032Z,69.43
2022-08-08T20:47:41.957Z,69.91
2022-08-08T20:49:22.314Z,70.60
2022-08-08T20:51:10.478Z,70.91
2022-08-08T20:52:48.353Z,70.83
2022-08-08T20:54:25.879Z,71.11
2022-08-08T20:56:01.886Z,70.83
2022-08-08T20:57:35.339Z,70.27
2022-08-08T20:59:18.292Z,71.15
2022-08-08T21:00:55.231Z,71.46
2022-08-08T21:02:28.956Z,71.69
2022-08-08T21:04:02.336Z,71.43
2022-08-08T21:05:49.251Z,72.05
2022-08-08T21:08:07.908Z,71.81
2022-08-08T21:09:31.723Z,72.52
2022-08-08T21:11:51.916Z,73.40
2022-08-08T21:13:14.989Z,73.94
2022-08-08T21:14:51.237Z,74.62
2022-08-08T21:16:28.828Z,74.91
2022-08-08T21:18:03.544Z,74.59
2022-08-08T21:19:45.585Z,74.23
2022-08-08T21:21:39.728Z,74.52
2022-08-08T21:23:18.239Z,74.40
2022-08-08T21:24:53.714Z,74.71
2022-08-08T21:26:28.308Z,74.65
2022-08-08T21:28:09.784Z,74.94
2022-08-08T21:30:02.598Z,74.41
2022-08-08T21:31:53.398Z,74.67
2022-08-08T21:33:32.371Z,73.88
2022-08-08T21:36:18.002Z,73.80
2022-08-08T21:37:05.275Z,74.64
2022-08-08T21:38:52.039Z,74.36
2022-08-08T21:40:31.135Z,74.09
2022-08-08T21:42:05.529Z,74.57
2022-08-08T21:43:39.455Z,74.44
2022-08-08T21:45:31.566Z,74.34
2022-08-08T21:48:04.626Z,73.87
2022-08-08T21:49:01.223Z,75.06
2022-08-08T21:50:36.595Z,75.47
2022-08-08T21:54:22.851Z,75.77
2022-08-08T21:54:34.782Z,76.18
2022-08-08T21:56:24.536Z,76.24
2022-08-08T21:58:05.251Z,76.03
2022-08-08T22:00:04.056Z,75.65
2022-08-08T22:01:52.466Z,75.83
2022-08-08T22:03:30.639Z,75.90
2022-08-08T22:05:04.177Z,75.59
2022-08-08T22:06:40.639Z,75.40
2022-08-08T22:08:15.165Z,74.93
2022-08-08T22:09:49.144Z,74.64
2022-08-08T22:11:51.393Z,74.39
2022-08-08T22:13:21.418Z,74.74
2022-08-08T22:14:55.705Z,74.36
2022-08-08T22:16:33.817Z,74.99
2022-08-08T22:18:12.385Z,74.67
2022-08-08T22:20:10.779Z,75.17
2022-08-08T22:21:41.223Z,75.47
2022-08-08T22:23:17.627Z,75.50
2022-08-08T22:25:24.425Z,75.00
2022-08-08T22:27:55.966Z,75.09
2022-08-08T22:29:59.192Z,75.96
2022-08-08T22:31:14.080Z,75.32
2022-08-08T22:32:49.524Z,76.10
2022-08-08T22:34:23.704Z,76.24
2022-08-08T22:36:04.173Z,76.61
2022-08-08T22:37:53.559Z,76.80
2022-08-08T22:39:45.739Z,77.06
2022-08-08T22:41:23.639Z,77.28
2022-08-08T22:42:57.904Z,77.09
2022-08-08T22:44:32.512Z,76.89
2022-08-08T22:46:09.165Z,76.47